createdAt,value
2018-08-23T00:00:29.536Z,23.75
2018-08-23T00:02:57.030Z,23.72
2018-08-23T00:05:24.754Z,23.78
2018-08-23T00:07:57.109Z,23.77
2018-08-23T00:10:24.637Z,23.75
2018-08-23T00:12:58.663Z,23.76
2018-08-23T00:15:31.045Z,23.76
2018-08-23T00:17:58.563Z,23.82
2018-08-23T00:20:26.054Z,23.81
2018-08-23T00:22:53.617Z,23.81
2018-08-23T00:25:21.392Z,23.79
2018-08-23T00:27:48.860Z,23.78
2018-08-23T00:30:17.919Z,23.76
2018-08-23T00:32:46.384Z,23.78
2018-08-23T00:35:20.722Z,23.78
2018-08-23T00:37:47.393Z,23.79
2018-08-23T00:40:14.882Z,23.78
2018-08-23T00:42:43.872Z,23.75
2018-08-23T00:45:17.108Z,23.71
2018-08-23T00:47:45.677Z,23.72
2018-08-23T00:50:17.684Z,23.74
2018-08-23T00:52:46.619Z,23.77
2018-08-23T00:55:14.929Z,23.71
2018-08-23T00:57:41.629Z,23.74
2018-08-23T01:00:09.107Z,23.74
2018-08-23T01:02:35.773Z,23.72
2018-08-23T01:05:03.240Z,23.83
2018-08-23T01:07:31.891Z,23.77
2018-08-23T01:09:59.464Z,23.72
2018-08-23T01:12:27.501Z,23.73
2018-08-23T01:14:55.093Z,23.74
2018-08-23T01:17:22.613Z,23.76
2018-08-23T01:19:56.870Z,23.74
2018-08-23T01:22:24.383Z,23.74
2018-08-23T01:24:51.919Z,23.79
2018-08-23T01:27:24.264Z,23.81
2018-08-23T01:29:52.045Z,23.83
2018-08-23T01:32:25.259Z,23.84
2018-08-23T01:34:51.917Z,23.76
2018-08-23T01:37:26.624Z,23.76
2018-08-23T01:39:54.188Z,23.75
2018-08-23T01:42:26.282Z,23.84
2018-08-23T01:44:53.720Z,23.81
2018-08-23T01:47:21.356Z,23.83
2018-08-23T01:49:48.955Z,23.76
2018-08-23T01:52:16.779Z,23.79
2018-08-23T01:54:44.356Z,23.76
2018-08-23T01:57:11.975Z,23.78
2018-08-23T01:59:39.625Z,23.78
2018-08-23T02:02:11.296Z,23.78
2018-08-23T02:04:38.856Z,23.73
2018-08-23T02:07:06.432Z,23.78
2018-08-23T02:09:33.096Z,23.78
2018-08-23T02:12:00.685Z,23.77
2018-08-23T02:14:30.920Z,23.78
2018-08-23T02:16:57.581Z,23.78
2018-08-23T02:19:25.107Z,23.81
2018-08-23T02:21:51.760Z,23.82
2018-08-23T02:24:23.984Z,23.79
2018-08-23T02:26:50.635Z,23.79
2018-08-23T02:29:21.977Z,23.75
2018-08-23T02:31:48.639Z,23.77
2018-08-23T02:34:17.169Z,23.78
2018-08-23T02:36:45.168Z,23.74
2018-08-23T02:39:14.256Z,23.74
2018-08-23T02:41:40.909Z,23.74
2018-08-23T02:44:07.564Z,23.76
2018-08-23T02:46:35.109Z,23.75
2018-08-23T02:49:02.581Z,23.76
2018-08-23T02:51:40.197Z,23.73
2018-08-23T02:54:10.361Z,23.71
2018-08-23T02:56:37.844Z,23.72
2018-08-23T02:59:06.386Z,23.68
2018-08-23T03:01:34.128Z,23.69
2018-08-23T03:04:06.895Z,23.68
2018-08-23T03:06:55.258Z,23.65
2018-08-23T03:09:28.357Z,23.57
2018-08-23T03:11:57.889Z,23.60
2018-08-23T03:14:26.300Z,23.66
2018-08-23T03:17:35.981Z,23.65
2018-08-23T03:20:08.193Z,23.42
2018-08-23T03:22:35.902Z,23.60
2018-08-23T03:25:05.848Z,23.64
2018-08-23T03:27:32.596Z,23.70
2018-08-23T03:30:01.033Z,23.72
2018-08-23T03:32:27.904Z,23.70
2018-08-23T03:34:55.884Z,23.71
2018-08-23T03:37:22.663Z,23.72
2018-08-23T03:39:50.141Z,23.70
2018-08-23T03:42:16.821Z,23.68
2018-08-23T03:47:17.661Z,23.64
2018-08-23T03:49:47.308Z,23.68
2018-08-23T03:52:17.104Z,23.77
2018-08-23T03:54:51.115Z,23.71
2018-08-23T03:57:19.341Z,23.71
2018-08-23T03:59:49.260Z,23.76
2018-08-23T04:02:18.288Z,23.81
2018-08-23T04:04:47.312Z,23.90
2018-08-23T04:07:14.082Z,23.95
2018-08-23T04:09:41.033Z,23.98
2018-08-23T04:12:08.707Z,23.99
2018-08-23T04:14:36.396Z,23.99
2018-08-23T04:17:03.084Z,24.00
2018-08-23T04:19:31.708Z,24.03
2018-08-23T04:21:59.552Z,24.05
2018-08-23T04:24:26.190Z,24.04
2018-08-23T04:26:52.842Z,24.07
2018-08-23T04:29:29.847Z,24.04
2018-08-23T04:31:57.281Z,24.02
2018-08-23T04:34:23.924Z,24.08
2018-08-23T04:36:51.500Z,24.08
2018-08-23T04:39:18.149Z,24.06
2018-08-23T04:41:46.652Z,24.05
2018-08-23T04:44:16.577Z,24.04
2018-08-23T04:46:44.784Z,24.02
2018-08-23T04:49:13.525Z,24.04
2018-08-23T04:51:41.046Z,24.03
2018-08-23T04:54:07.697Z,24.04
2018-08-23T04:56:34.341Z,24.05
2018-08-23T04:59:01.033Z,24.05
2018-08-23T05:01:27.685Z,24.09
2018-08-23T05:03:54.377Z,24.11
2018-08-23T05:06:21.022Z,24.10
2018-08-23T05:08:47.665Z,24.13
2018-08-23T05:11:14.740Z,24.09
2018-08-23T05:13:43.201Z,24.10
2018-08-23T05:16:10.849Z,24.09
2018-08-23T05:18:37.484Z,24.09
2018-08-23T05:21:05.157Z,24.11
2018-08-23T05:23:32.608Z,24.13
2018-08-23T05:26:05.132Z,24.11
2018-08-23T05:28:31.785Z,24.12
2018-08-23T05:30:59.357Z,24.11
2018-08-23T05:33:26.084Z,24.14
2018-08-23T05:35:52.728Z,24.14
2018-08-23T05:38:19.864Z,24.15
2018-08-23T05:40:53.255Z,24.17
2018-08-23T05:43:20.076Z,24.15
2018-08-23T05:45:51.113Z,24.21
2018-08-23T05:48:23.821Z,24.20
2018-08-23T05:50:51.633Z,24.16
2018-08-23T05:53:19.811Z,24.20
2018-08-23T05:55:49.968Z,24.23
2018-08-23T05:58:20.341Z,24.19
2018-08-23T06:00:48.300Z,24.18
2018-08-23T06:03:16.756Z,24.17
2018-08-23T06:05:46.852Z,24.20
2018-08-23T06:08:14.358Z,24.20
2018-08-23T06:10:41.559Z,24.20
2018-08-23T06:13:08.436Z,24.20
2018-08-23T06:15:39.671Z,24.21
2018-08-23T06:18:06.601Z,24.18
2018-08-23T06:20:33.237Z,24.18
2018-08-23T06:22:59.869Z,24.20
2018-08-23T06:25:26.505Z,24.21
2018-08-23T06:27:54.951Z,24.23
2018-08-23T06:30:21.593Z,24.23
2018-08-23T06:32:52.033Z,24.21
2018-08-23T06:35:18.715Z,24.21
2018-08-23T06:37:50.809Z,24.21
2018-08-23T06:40:18.452Z,24.21
2018-08-23T06:42:50.926Z,24.21
2018-08-23T06:45:17.557Z,24.19
2018-08-23T06:47:48.250Z,24.21
2018-08-23T06:50:14.905Z,24.21
2018-08-23T06:52:47.381Z,24.23
2018-08-23T06:55:14.032Z,24.20
2018-08-23T06:57:43.530Z,24.21
2018-08-23T07:00:10.254Z,24.22
2018-08-23T07:02:41.512Z,24.24
2018-08-23T07:05:08.249Z,24.23
2018-08-23T07:07:34.892Z,24.25
2018-08-23T07:10:01.565Z,24.25
2018-08-23T07:12:29.210Z,24.27
2018-08-23T07:14:56.877Z,24.26
2018-08-23T07:17:25.401Z,24.26
2018-08-23T07:19:52.073Z,24.24
2018-08-23T07:22:22.842Z,24.25
2018-08-23T07:24:51.404Z,24.23
2018-08-23T07:27:19.904Z,24.24
2018-08-23T07:29:48.068Z,24.22
2018-08-23T07:32:19.416Z,24.25
2018-08-23T07:34:52.415Z,24.25
2018-08-23T07:37:19.767Z,24.22
2018-08-23T07:39:55.260Z,24.24
2018-08-23T07:42:23.272Z,24.18
2018-08-23T07:44:50.980Z,24.22
2018-08-23T07:47:17.659Z,24.23
2018-08-23T07:49:45.142Z,24.25
2018-08-23T07:52:13.780Z,24.25
2018-08-23T07:54:41.388Z,24.24
2018-08-23T07:57:08.033Z,24.21
2018-08-23T07:59:35.680Z,24.18
2018-08-23T08:02:02.365Z,24.24
2018-08-23T08:04:29.967Z,24.21
2018-08-23T08:06:57.653Z,24.24
2018-08-23T08:09:26.117Z,24.22
2018-08-23T08:11:58.332Z,24.24
2018-08-23T08:14:33.061Z,24.21
2018-08-23T08:17:05.479Z,24.22
2018-08-23T08:19:35.688Z,24.23
2018-08-23T08:22:02.329Z,24.25
2018-08-23T08:24:29.809Z,24.26
2018-08-23T08:26:57.432Z,24.26
2018-08-23T08:29:30.683Z,24.27
2018-08-23T08:31:58.190Z,24.26
2018-08-23T08:34:25.688Z,24.25
2018-08-23T08:36:53.344Z,24.25
2018-08-23T08:39:20.868Z,24.25
2018-08-23T08:41:48.490Z,24.26
2018-08-23T08:44:16.781Z,24.25
2018-08-23T08:46:45.045Z,24.26
2018-08-23T08:49:13.708Z,24.27
2018-08-23T08:51:40.359Z,24.27
2018-08-23T08:54:07.825Z,24.24
2018-08-23T08:56:38.714Z,24.27
2018-08-23T08:59:05.381Z,24.25
2018-08-23T09:01:32.101Z,24.27
2018-08-23T09:03:59.564Z,24.27
2018-08-23T09:06:30.244Z,24.27
2018-08-23T09:08:56.916Z,24.23
2018-08-23T09:11:23.572Z,24.24
2018-08-23T09:13:50.337Z,24.26
2018-08-23T09:16:20.031Z,24.27
2018-08-23T09:18:52.449Z,24.25
2018-08-23T09:21:19.139Z,24.23
2018-08-23T09:23:47.355Z,24.24
2018-08-23T09:26:14.987Z,24.27
2018-08-23T09:28:41.633Z,24.27
2018-08-23T09:31:09.328Z,24.26
2018-08-23T09:33:36.942Z,24.27
2018-08-23T09:36:04.564Z,24.26
2018-08-23T09:38:32.183Z,24.28
2018-08-23T09:40:59.689Z,24.26
2018-08-23T09:43:26.337Z,24.27
2018-08-23T09:45:53.856Z,24.28
2018-08-23T09:48:20.654Z,24.28
2018-08-23T09:50:48.713Z,24.28
2018-08-23T09:53:21.909Z,24.27
2018-08-23T09:55:50.633Z,24.28
2018-08-23T09:58:25.316Z,24.25
2018-08-23T10:00:58.819Z,24.20
2018-08-23T10:03:31.641Z,24.19
2018-08-23T10:06:04.759Z,24.24
2018-08-23T10:08:37.149Z,24.23
2018-08-23T10:11:10.328Z,24.22
2018-08-23T10:13:43.397Z,24.19
2018-08-23T10:16:16.456Z,24.21
2018-08-23T10:18:49.489Z,24.20
2018-08-23T10:21:17.901Z,24.21
2018-08-23T10:23:44.556Z,24.23
2018-08-23T10:26:22.787Z,24.25
2018-08-23T10:28:49.420Z,24.19
2018-08-23T10:31:16.251Z,24.22
2018-08-23T10:33:45.428Z,24.24
2018-08-23T10:36:13.985Z,24.24
2018-08-23T10:38:41.627Z,24.24
2018-08-23T10:41:09.223Z,24.24
2018-08-23T10:43:43.765Z,24.25
2018-08-23T10:46:10.405Z,24.21
2018-08-23T10:48:37.943Z,24.23
2018-08-23T10:51:05.621Z,24.24
2018-08-23T10:53:32.264Z,24.25
2018-08-23T10:55:59.932Z,24.25
2018-08-23T10:58:27.511Z,24.25
2018-08-23T11:00:55.088Z,24.27
2018-08-23T11:03:21.727Z,24.27
2018-08-23T11:05:49.234Z,24.25
2018-08-23T11:08:24.968Z,24.26
2018-08-23T11:10:58.156Z,24.22
2018-08-23T11:13:31.282Z,24.21
2018-08-23T11:16:04.420Z,24.22
2018-08-23T11:18:37.562Z,24.22
2018-08-23T11:21:05.103Z,24.20
2018-08-23T11:23:32.669Z,24.21
2018-08-23T11:26:00.261Z,24.25
2018-08-23T11:28:27.873Z,24.26
2018-08-23T11:30:59.928Z,24.25
2018-08-23T11:33:27.414Z,24.27
2018-08-23T11:35:55.045Z,24.26
2018-08-23T11:38:21.765Z,24.27
2018-08-23T11:40:49.237Z,24.25
2018-08-23T11:43:17.972Z,24.24
2018-08-23T11:45:45.514Z,24.25
2018-08-23T11:48:14.197Z,24.27
2018-08-23T11:50:41.799Z,24.26
2018-08-23T11:53:09.553Z,24.24
2018-08-23T11:55:36.986Z,24.28
2018-08-23T11:58:04.718Z,24.27
2018-08-23T12:00:32.161Z,24.25
2018-08-23T12:02:59.765Z,24.27
2018-08-23T12:05:27.380Z,24.27
2018-08-23T12:07:55.205Z,24.25
2018-08-23T12:10:23.780Z,24.26
2018-08-23T12:12:52.538Z,24.26
2018-08-23T12:15:22.677Z,24.26
2018-08-23T12:17:50.484Z,24.24
2018-08-23T12:20:18.069Z,24.24
2018-08-23T12:22:45.652Z,24.23
2018-08-23T12:25:15.246Z,24.26
2018-08-23T12:27:47.440Z,24.25
2018-08-23T12:30:15.130Z,24.25
2018-08-23T12:32:43.805Z,24.26
2018-08-23T12:35:11.326Z,24.26
2018-08-23T12:37:44.508Z,24.25
2018-08-23T12:40:17.643Z,24.19
2018-08-23T12:42:48.675Z,24.16
2018-08-23T12:45:16.969Z,24.20
2018-08-23T12:47:44.757Z,24.22
2018-08-23T12:50:13.785Z,24.24
2018-08-23T12:52:40.804Z,24.22
2018-08-23T12:55:08.300Z,24.24
2018-08-23T12:57:35.872Z,24.24
2018-08-23T13:00:02.529Z,24.24
2018-08-23T13:02:29.228Z,24.25
2018-08-23T13:04:55.897Z,24.24
2018-08-23T13:07:22.540Z,24.25
2018-08-23T13:09:49.181Z,24.25
2018-08-23T13:12:16.151Z,24.28
2018-08-23T13:14:44.124Z,24.25
2018-08-23T13:17:10.896Z,24.25
2018-08-23T13:19:37.637Z,24.26
2018-08-23T13:22:05.208Z,24.26
2018-08-23T13:24:32.444Z,24.27
2018-08-23T13:26:59.121Z,24.27
2018-08-23T13:29:26.200Z,24.27
2018-08-23T13:31:52.922Z,24.28
2018-08-23T13:34:19.588Z,24.27
2018-08-23T13:36:47.103Z,24.28
2018-08-23T13:39:14.753Z,24.25
2018-08-23T13:41:41.928Z,24.25
2018-08-23T13:44:09.548Z,24.26
2018-08-23T13:46:37.225Z,24.26
2018-08-23T13:49:04.709Z,24.24
2018-08-23T13:51:32.324Z,24.25
2018-08-23T13:53:59.626Z,24.25
2018-08-23T13:56:26.293Z,24.21
2018-08-23T13:58:54.939Z,24.24
2018-08-23T14:01:25.265Z,24.23
2018-08-23T14:03:53.222Z,24.22
2018-08-23T14:06:20.956Z,24.24
2018-08-23T14:08:48.449Z,24.24
2018-08-23T14:11:15.180Z,24.23
2018-08-23T14:13:41.813Z,24.20
2018-08-23T14:16:09.423Z,24.23
2018-08-23T14:18:37.061Z,24.25
2018-08-23T14:21:04.849Z,24.20
2018-08-23T14:23:32.478Z,24.23
2018-08-23T14:26:00.152Z,24.23
2018-08-23T14:28:27.616Z,24.21
2018-08-23T14:30:54.367Z,24.22
2018-08-23T14:33:21.923Z,24.20
2018-08-23T14:35:49.621Z,24.21
2018-08-23T14:38:17.285Z,24.23
2018-08-23T14:40:47.588Z,24.22
2018-08-23T14:43:15.239Z,24.21
2018-08-23T14:45:44.201Z,24.23
2018-08-23T14:48:14.209Z,24.23
2018-08-23T14:50:41.792Z,24.23
2018-08-23T14:53:09.461Z,24.23
2018-08-23T14:55:43.888Z,24.23
2018-08-23T14:58:11.560Z,24.20
2018-08-23T15:00:39.216Z,24.22
2018-08-23T15:03:05.868Z,24.22
2018-08-23T15:05:32.508Z,24.22
2018-08-23T15:07:59.988Z,24.22
2018-08-23T15:10:26.649Z,24.23
2018-08-23T15:12:53.317Z,24.23
2018-08-23T15:15:24.557Z,24.23
2018-08-23T15:17:52.195Z,24.26
2018-08-23T15:20:18.856Z,24.25
2018-08-23T15:22:45.497Z,24.24
2018-08-23T15:25:14.603Z,24.24
2018-08-23T15:27:49.049Z,24.22
2018-08-23T15:30:15.693Z,24.17
2018-08-23T15:32:43.424Z,24.22
2018-08-23T15:35:10.172Z,24.21
2018-08-23T15:37:36.825Z,24.23
2018-08-23T15:40:03.553Z,24.24
2018-08-23T15:42:30.201Z,24.22
2018-08-23T15:44:56.841Z,24.25
2018-08-23T15:47:23.619Z,24.24
2018-08-23T15:49:50.268Z,24.26
2018-08-23T15:52:17.604Z,24.26
2018-08-23T15:54:44.493Z,24.26
2018-08-23T15:57:11.156Z,24.26
2018-08-23T15:59:37.805Z,24.25
2018-08-23T16:02:05.467Z,24.23
2018-08-23T16:04:33.052Z,24.23
2018-08-23T16:06:59.720Z,24.23
2018-08-23T16:09:27.317Z,24.26
2018-08-23T16:11:54.985Z,24.22
2018-08-23T16:14:22.605Z,24.23
2018-08-23T16:16:55.956Z,24.24
2018-08-23T16:19:28.309Z,24.18
2018-08-23T16:21:57.307Z,24.18
2018-08-23T16:24:24.291Z,24.18
2018-08-23T16:26:57.544Z,24.22
2018-08-23T16:29:25.102Z,24.18
2018-08-23T16:31:51.803Z,24.19
2018-08-23T16:34:19.237Z,24.21
2018-08-23T16:36:47.985Z,24.22
2018-08-23T16:39:15.497Z,24.20
2018-08-23T16:41:42.185Z,24.20
2018-08-23T16:44:09.829Z,24.22
2018-08-23T16:46:36.475Z,24.22
2018-08-23T16:49:03.129Z,24.22
2018-08-23T16:51:29.840Z,24.23
2018-08-23T16:53:56.868Z,24.23
2018-08-23T16:56:24.453Z,24.22
2018-08-23T16:58:52.021Z,24.23
2018-08-23T17:01:18.665Z,24.23
2018-08-23T17:03:49.907Z,24.23
2018-08-23T17:06:17.253Z,24.24
2018-08-23T17:08:46.378Z,24.23
2018-08-23T17:11:15.296Z,24.22
2018-08-23T17:13:44.056Z,24.19
2018-08-23T17:16:17.433Z,24.20
2018-08-23T17:18:47.327Z,24.19
2018-08-23T17:21:15.597Z,24.19
2018-08-23T17:23:44.324Z,24.20
2018-08-23T17:26:10.972Z,24.19
2018-08-23T17:28:39.023Z,24.25
2018-08-23T17:31:05.660Z,24.25
2018-08-23T17:33:32.320Z,24.26
2018-08-23T17:35:59.010Z,24.25
2018-08-23T17:38:27.884Z,24.23
2018-08-23T17:40:54.525Z,24.22
2018-08-23T17:43:21.212Z,24.23
2018-08-23T17:45:50.065Z,24.23
2018-08-23T17:48:17.766Z,24.25
2018-08-23T17:50:44.456Z,24.24
2018-08-23T17:53:12.147Z,24.25
2018-08-23T17:55:38.844Z,24.24
2018-08-23T17:58:05.536Z,24.22
2018-08-23T18:00:33.153Z,24.26
2018-08-23T18:03:00.825Z,24.24
2018-08-23T18:05:28.429Z,24.21
2018-08-23T18:07:56.092Z,24.21
2018-08-23T18:10:23.781Z,24.20
2018-08-23T18:12:51.394Z,24.19
2018-08-23T18:15:19.036Z,24.19
2018-08-23T18:17:45.707Z,24.19
2018-08-23T18:20:14.291Z,24.20
2018-08-23T18:22:41.884Z,24.19
2018-08-23T18:25:09.452Z,24.19
2018-08-23T18:27:36.109Z,24.18
2018-08-23T18:30:02.769Z,24.20
2018-08-23T18:32:30.364Z,24.21
2018-08-23T18:34:57.922Z,24.23
2018-08-23T18:37:24.761Z,24.21
2018-08-23T18:39:52.231Z,24.23
2018-08-23T18:42:19.895Z,24.24
2018-08-23T18:44:47.713Z,24.22
2018-08-23T18:47:14.848Z,24.22
2018-08-23T18:49:42.361Z,24.21
2018-08-23T18:52:09.011Z,24.20
2018-08-23T18:54:35.664Z,24.21
2018-08-23T18:57:02.294Z,24.17
2018-08-23T18:59:28.938Z,24.19
2018-08-23T19:01:55.610Z,24.19
2018-08-23T19:04:22.261Z,24.19
2018-08-23T19:06:48.997Z,24.19
2018-08-23T19:09:15.653Z,24.20
2018-08-23T19:11:43.810Z,24.20
2018-08-23T19:14:10.460Z,24.20
2018-08-23T19:16:43.434Z,24.19
2018-08-23T19:19:10.057Z,24.16
2018-08-23T19:21:37.116Z,24.20
2018-08-23T19:24:04.732Z,24.21
2018-08-23T19:26:31.393Z,24.22
2018-08-23T19:28:58.939Z,24.23
2018-08-23T19:31:25.677Z,24.23
2018-08-23T19:33:52.401Z,24.21
2018-08-23T19:36:20.056Z,24.22
2018-08-23T19:38:47.920Z,24.23
2018-08-23T19:41:14.591Z,24.22
2018-08-23T19:43:41.222Z,24.21
2018-08-23T19:46:14.364Z,24.20
2018-08-23T19:48:41.635Z,24.16
2018-08-23T19:51:09.284Z,24.17
2018-08-23T19:53:36.952Z,24.20
2018-08-23T19:56:04.824Z,24.19
2018-08-23T19:58:31.488Z,24.20
2018-08-23T20:00:59.026Z,24.20
2018-08-23T20:03:26.563Z,24.20
2018-08-23T20:05:53.200Z,24.22
2018-08-23T20:08:19.846Z,24.23
2018-08-23T20:10:48.209Z,24.23
2018-08-23T20:13:15.857Z,24.22
2018-08-23T20:15:43.185Z,24.22
2018-08-23T20:18:10.874Z,24.22
2018-08-23T20:20:38.577Z,24.21
2018-08-23T20:23:06.208Z,24.20
2018-08-23T20:25:33.809Z,24.22
2018-08-23T20:28:01.389Z,24.21
2018-08-23T20:30:28.045Z,24.20
2018-08-23T20:32:55.545Z,24.20
2018-08-23T20:35:22.199Z,24.21
2018-08-23T20:37:49.837Z,24.22
2018-08-23T20:40:17.926Z,24.22
2018-08-23T20:42:45.549Z,24.20
2018-08-23T20:45:13.647Z,24.20
2018-08-23T20:47:40.289Z,24.20
2018-08-23T20:50:06.925Z,24.20
2018-08-23T20:52:34.587Z,24.21
2018-08-23T20:55:01.226Z,24.22
2018-08-23T20:57:27.865Z,24.23
2018-08-23T20:59:55.422Z,24.24
2018-08-23T21:02:22.084Z,24.23
2018-08-23T21:04:48.732Z,24.23
2018-08-23T21:07:15.744Z,24.24
2018-08-23T21:09:42.392Z,24.24
2018-08-23T21:12:09.898Z,24.22
2018-08-23T21:14:37.488Z,24.20
2018-08-23T21:17:04.141Z,24.21
2018-08-23T21:19:31.589Z,24.21
2018-08-23T21:21:59.245Z,24.20
2018-08-23T21:24:25.904Z,24.21
2018-08-23T21:26:53.353Z,24.21
2018-08-23T21:29:20.952Z,24.21
2018-08-23T21:31:49.449Z,24.21
2018-08-23T21:34:17.988Z,24.20
2018-08-23T21:36:45.865Z,24.20
2018-08-23T21:39:13.956Z,24.21
2018-08-23T21:41:40.600Z,24.21
2018-08-23T21:44:08.170Z,24.20
2018-08-23T21:46:34.805Z,24.20
2018-08-23T21:49:02.457Z,24.21
2018-08-23T21:51:30.098Z,24.20
2018-08-23T21:53:56.993Z,24.19
2018-08-23T21:56:24.660Z,24.20
2018-08-23T21:58:51.324Z,24.20
2018-08-23T22:01:19.590Z,24.21
2018-08-23T22:03:48.245Z,24.20
2018-08-23T22:06:15.856Z,24.20
2018-08-23T22:08:44.808Z,24.21
2018-08-23T22:11:12.413Z,24.19
2018-08-23T22:13:40.045Z,24.19
2018-08-23T22:16:06.689Z,24.21
2018-08-23T22:18:34.328Z,24.21
2018-08-23T22:21:01.972Z,24.20
2018-08-23T22:23:29.560Z,24.21
2018-08-23T22:25:57.200Z,24.22
2018-08-23T22:28:25.475Z,24.21
2018-08-23T22:30:53.040Z,24.20
2018-08-23T22:33:19.669Z,24.20
2018-08-23T22:35:47.892Z,24.20
2018-08-23T22:38:15.356Z,24.21
2018-08-23T22:40:43.500Z,24.21
2018-08-23T22:43:11.116Z,24.21
2018-08-23T22:45:38.751Z,24.22
2018-08-23T22:48:06.412Z,24.21
2018-08-23T22:50:33.050Z,24.22
2018-08-23T22:53:00.711Z,24.23
2018-08-23T22:55:28.317Z,24.23
2018-08-23T22:57:55.913Z,24.21
2018-08-23T23:00:28.134Z,24.20
2018-08-23T23:02:55.624Z,24.19
2018-08-23T23:05:23.170Z,24.18
2018-08-23T23:07:49.761Z,24.19
2018-08-23T23:10:17.601Z,24.21
2018-08-23T23:12:45.229Z,24.21
2018-08-23T23:15:17.619Z,24.20
2018-08-23T23:17:45.089Z,24.18
2018-08-23T23:20:13.276Z,24.20
2018-08-23T23:22:40.924Z,24.19
2018-08-23T23:25:07.573Z,24.20
2018-08-23T23:27:35.160Z,24.22
2018-08-23T23:30:02.814Z,24.20
2018-08-23T23:32:30.492Z,24.21
2018-08-23T23:34:57.980Z,24.20
2018-08-23T23:37:25.636Z,24.22
2018-08-23T23:39:53.133Z,24.20
2018-08-23T23:42:19.809Z,24.21
2018-08-23T23:44:48.369Z,24.20
2018-08-23T23:47:15.004Z,24.21
2018-08-23T23:49:41.671Z,24.21
2018-08-23T23:52:08.314Z,24.23
2018-08-23T23:54:34.990Z,24.24
2018-08-23T23:57:01.649Z,24.22
2018-08-23T23:59:28.288Z,24.22
